Harrisville, MI

8:58 PM EDT on September 30, 2014 (GMT -0400)
Port Hope | Change Station
CLOSE
Current Station
Airport
Location: Port Hope,
Elevation: 587 ft
Nearby Weather Stations

Elev 587 ft 44.02 °N, 82.79 °W | Updated 7 minutes ago

Overcast
Overcast
57 °F
Feels Like 57 °F
N
15
Wind Variable Wind from NNE
Gusts 9 mph

Today
High -- | Low -- °F
--% Chance of Precip.
Yesterday
High -- | Low -- °F
Precip. -- in
7:30 AM 7:15 PM
Waxing Crescent, 42% visible
Pressure 30.01 in
Visibility -9999.0 miles
Clouds
Dew Point 55 °F
Humidity 93%
Rainfall 0.13 in
Snow Depth Not available.
UV Not available.
Pollen .90 out of 12
Ozone Good
PM2.5 Good
Flu Activity Not available.
METAR KP58 010051Z AUTO 03013KT 14/13 A3001 RMK AO1 SLP162 T01390128

More Conditions Fewer Conditions

Pressure 30.01 in
Visibility -9999.0 miles
Clouds
Dew Point 55 °F
Humidity 93%
Rainfall 0.13 in
Snow Depth Not available.
UV Not available.
Pollen .90 out of 12
Ozone Good
PM2.5 Good
Flu Activity Not available.
METAR KP58 010051Z AUTO 03013KT 14/13 A3001 RMK AO1 SLP162 T01390128

More Conditions Fewer Conditions

Nowcast | as of 8:00 PM EDT on September 30, 2014

At 9 PM...cloudy. Periods of drizzle. Temperature 51. North winds 9 mph. At 11 PM...cloudy. Periods of drizzle. Temperature 51. Northeast winds 9 mph. At 1 am...cloudy. Periods of drizzle. Temperature 51. Northeast winds 10 mph. At 3 am...cloudy. Periods of drizzle. Temperature 51. East winds 9 mph.

×

10-Day Weather Forecast

Almanac

Astronomy

Sep. 30, 2014 Rise Set
Actual Time 7:30 AM EDT 7:15 PM EDT
Civil Twilight 7:01 AM EDT 7:44 PM EDT
Nautical Twilight 6:27 AM EDT 8:18 PM EDT
Astronomical Twilight 5:52 AM EDT 8:53 PM EDT
Moon 1:48 PM EDT (9/30) 11:34 PM EDT (9/30)
Length of Visible Light 12h 43m
Length of Day
11h 45m
Tomorrow will be 3m 5s shorter.
Waxing Crescent, 42% of the Moon is Illuminated
Today
Waxing Crescent
Oct 1
First Quarter
Oct 8
Full
Oct 15
Last Quarter
Oct 23
New

Today's Extremes

State Highs State Lows

Community

WunderPhotos

Upload Photos

1,757,801 photos uploaded!

Nearby

Air Quality

  Air Quality AQ Index Pollutant
Yesterday Good
OZONE
Yesterday Good
PM2.5
Current Good
PM2.5
Current Good
OZONE
Tuesday Good
OZONE
Tuesday Good
PM2.5
Wednesday Good
OZONE
Wednesday Good
PM2.5
Thursday Good
OZONE
Thursday Good
PM2.5
Friday Good
OZONE
Friday Good
PM2.5
Saturday Good
OZONE
Saturday Good
PM2.5

Snow Depth

Station Depth Elevation
No new snow has been reported.

Earthquake Activity

City Distance Mag. Time & Date
No recent earthquake activity has been reported nearby.
Minimum magnitude displayed is 2.5.

Coastal Water Temperatures

Place Temperature
Alpena, MI 60.1 °F

Nearby Weather Stations